createdAt,value
2019-04-20T00:01:33.624Z,8.19
2019-04-20T00:04:03.533Z,8.12
2019-04-20T00:06:41.695Z,8.04
2019-04-20T00:09:17.154Z,8.01
2019-04-20T00:11:58.972Z,8.02
2019-04-20T00:14:24.608Z,8.04
2019-04-20T00:16:52.925Z,8.02
2019-04-20T00:19:33.597Z,7.93
2019-04-20T00:22:08.040Z,7.85
2019-04-20T00:25:12.048Z,7.81
2019-04-20T00:28:16.300Z,7.78
2019-04-20T00:30:54.330Z,7.74
2019-04-20T00:33:21.687Z,7.71
2019-04-20T00:35:42.123Z,7.64
2019-04-20T00:38:15.981Z,7.54
2019-04-20T00:40:57.614Z,7.46
2019-04-20T00:43:28.119Z,7.39
2019-04-20T00:46:01.981Z,7.29
2019-04-20T00:48:42.890Z,7.17
2019-04-20T00:51:24.106Z,7.04
2019-04-20T00:53:43.318Z,6.97
2019-04-20T00:56:13.980Z,6.91
2019-04-20T00:58:58.235Z,6.89
2019-04-20T01:01:46.248Z,6.92
2019-04-20T01:04:15.076Z,6.91
2019-04-20T01:07:01.694Z,6.88
2019-04-20T01:09:45.454Z,6.88
2019-04-20T01:12:24.238Z,6.89
2019-04-20T01:14:57.349Z,6.97
2019-04-20T01:17:26.027Z,7.01
2019-04-20T01:19:58.055Z,7.03
2019-04-20T01:22:40.161Z,7.01
2019-04-20T01:25:09.737Z,6.99
2019-04-20T01:27:58.850Z,7.02
2019-04-20T01:30:23.553Z,7.06
2019-04-20T01:33:02.527Z,7.07
2019-04-20T01:35:40.826Z,7.09
2019-04-20T01:38:12.552Z,7.08
2019-04-20T01:40:29.583Z,7.02
2019-04-20T01:43:01.635Z,7.00
2019-04-20T01:45:37.888Z,6.96
2019-04-20T01:48:08.244Z,6.87
2019-04-20T01:50:52.112Z,6.80
2019-04-20T01:53:29.320Z,6.73
2019-04-20T01:56:07.273Z,6.50
2019-04-20T01:59:02.694Z,6.34
2019-04-20T02:01:36.183Z,6.24
2019-04-20T02:04:22.452Z,6.18
2019-04-20T02:06:53.216Z,6.18
2019-04-20T02:09:25.617Z,6.19
2019-04-20T02:11:55.691Z,6.19
2019-04-20T02:14:35.548Z,6.19
2019-04-20T02:17:13.019Z,6.21
2019-04-20T02:19:58.536Z,6.20
2019-04-20T02:22:23.127Z,6.22
2019-04-20T02:24:42.713Z,6.16
2019-04-20T02:27:14.810Z,6.07
2019-04-20T02:30:13.402Z,6.03
2019-04-20T02:32:55.578Z,6.01
2019-04-20T02:35:53.962Z,5.93
2019-04-20T02:38:45.020Z,5.80
2019-04-20T02:41:21.459Z,5.73
2019-04-20T02:43:46.842Z,5.64
2019-04-20T02:46:06.761Z,5.60
2019-04-20T02:48:40.068Z,5.56
2019-04-20T02:51:16.009Z,5.59
2019-04-20T02:54:09.524Z,5.68
2019-04-20T02:56:32.405Z,5.81
2019-04-20T02:59:14.704Z,5.88
2019-04-20T03:01:43.452Z,5.94
2019-04-20T03:04:00.768Z,5.99
2019-04-20T03:06:42.561Z,6.06
2019-04-20T03:09:29.694Z,6.08
2019-04-20T03:14:26.617Z,5.76
2019-04-20T03:17:10.417Z,5.55
2019-04-20T03:19:36.212Z,5.43
2019-04-20T03:22:16.075Z,5.32
2019-04-20T03:24:49.592Z,5.22
2019-04-20T03:27:25.058Z,5.17
2019-04-20T03:30:22.820Z,5.13
2019-04-20T03:38:02.826Z,5.17
2019-04-20T03:40:27.508Z,5.18
2019-04-20T03:42:44.697Z,5.22
2019-04-20T03:45:20.998Z,5.20
2019-04-20T03:48:03.084Z,5.21
2019-04-20T03:50:46.303Z,5.21
2019-04-20T03:53:23.009Z,5.23
2019-04-20T03:56:21.556Z,5.22
2019-04-20T03:59:01.280Z,5.17
2019-04-20T04:04:38.882Z,5.15
2019-04-20T04:06:59.768Z,5.09
2019-04-20T04:09:37.022Z,5.09
2019-04-20T04:12:56.838Z,5.09
2019-04-20T04:15:29.622Z,5.09
2019-04-20T04:18:08.876Z,5.12
2019-04-20T04:20:43.620Z,5.13
2019-04-20T04:23:22.018Z,5.11
2019-04-20T04:26:00.723Z,5.10
2019-04-20T04:28:32.596Z,5.06
2019-04-20T04:36:13.538Z,4.87
2019-04-20T04:38:53.535Z,4.82
2019-04-20T04:41:27.038Z,4.75
2019-04-20T04:43:58.897Z,4.73
2019-04-20T04:46:14.364Z,4.74
2019-04-20T04:48:50.792Z,4.71
2019-04-20T04:51:24.718Z,4.72
2019-04-20T04:54:01.766Z,4.73
2019-04-20T04:56:29.963Z,4.79
2019-04-20T04:59:02.348Z,4.78
2019-04-20T05:01:37.211Z,4.83
2019-04-20T05:04:25.143Z,4.95
2019-04-20T05:06:58.205Z,5.02
2019-04-20T05:09:17.041Z,5.12
2019-04-20T05:11:56.135Z,5.21
2019-04-20T05:14:32.520Z,5.31
2019-04-20T05:17:11.669Z,5.44
2019-04-20T05:19:47.817Z,5.62
2019-04-20T05:22:27.562Z,6.27
2019-04-20T05:25:12.852Z,7.16
2019-04-20T05:27:51.057Z,7.95
2019-04-20T05:30:09.829Z,8.54
2019-04-20T05:32:54.386Z,9.02
2019-04-20T05:35:38.098Z,9.30
2019-04-20T05:38:22.960Z,9.84
2019-04-20T05:40:51.453Z,10.01
2019-04-20T05:43:37.198Z,9.93
2019-04-20T05:46:18.390Z,10.25
2019-04-20T05:48:53.299Z,11.12
2019-04-20T05:51:29.770Z,11.40
2019-04-20T05:53:58.787Z,11.70
2019-04-20T05:56:35.848Z,12.00
2019-04-20T05:59:04.496Z,12.66
2019-04-20T06:01:45.249Z,12.99
2019-04-20T06:04:28.385Z,13.30
2019-04-20T06:06:56.009Z,13.59
2019-04-20T06:09:33.878Z,13.83
2019-04-20T06:12:15.995Z,14.32
2019-04-20T06:14:52.268Z,14.68
2019-04-20T06:17:52.856Z,14.96
2019-04-20T06:20:31.288Z,15.33
2019-04-20T06:23:25.707Z,15.26
2019-04-20T06:26:13.447Z,15.30
2019-04-20T06:28:43.886Z,15.67
2019-04-20T06:31:42.652Z,15.85
2019-04-20T06:34:33.373Z,15.84
2019-04-20T06:37:02.095Z,16.61
2019-04-20T06:39:54.673Z,17.50
2019-04-20T06:42:37.055Z,17.02
2019-04-20T06:45:20.187Z,16.97
2019-04-20T06:47:57.566Z,17.03
2019-04-20T06:50:30.403Z,17.60
2019-04-20T06:53:41.630Z,18.52
2019-04-20T06:56:29.800Z,18.93
2019-04-20T06:59:25.862Z,19.13
2019-04-20T07:02:04.023Z,19.36
2019-04-20T07:07:18.446Z,20.07
2019-04-20T07:10:06.720Z,20.64
2019-04-20T07:12:27.320Z,20.59
2019-04-20T07:15:06.514Z,21.12
2019-04-20T07:20:51.596Z,21.61
2019-04-20T07:23:26.516Z,22.58
2019-04-20T07:26:12.748Z,22.59
2019-04-20T07:28:48.548Z,23.08
2019-04-20T07:31:18.200Z,23.22
2019-04-20T07:34:04.675Z,23.59
2019-04-20T07:36:50.307Z,24.01
2019-04-20T07:39:27.947Z,24.28
2019-04-20T07:42:12.114Z,24.48
2019-04-20T07:44:58.064Z,24.89
2019-04-20T07:50:21.272Z,25.50
2019-04-20T07:53:06.698Z,25.59
2019-04-20T07:55:55.164Z,26.03
2019-04-20T07:58:27.342Z,26.42
2019-04-20T08:01:40.189Z,26.85
2019-04-20T08:04:13.213Z,27.11
2019-04-20T08:06:41.902Z,26.62
2019-04-20T08:09:25.979Z,26.87
2019-04-20T08:12:28.244Z,27.39
2019-04-20T08:15:04.922Z,27.66
2019-04-20T08:17:44.302Z,27.20
2019-04-20T08:20:16.155Z,27.76
2019-04-20T08:22:53.077Z,28.56
2019-04-20T08:25:16.282Z,28.99
2019-04-20T08:27:57.101Z,28.76
2019-04-20T08:31:17.848Z,28.30
2019-04-20T08:34:07.526Z,28.71
2019-04-20T08:36:33.548Z,28.66
2019-04-20T08:41:50.397Z,29.23
2019-04-20T08:47:21.781Z,30.01
2019-04-20T08:49:41.110Z,29.55
2019-04-20T08:52:34.387Z,29.57
2019-04-20T08:54:41.465Z,29.22
2019-04-20T08:57:04.953Z,29.73
2019-04-20T08:59:43.622Z,30.04
2019-04-20T09:02:18.843Z,28.89
2019-04-20T09:04:59.141Z,29.45
2019-04-20T09:07:33.361Z,29.82
2019-04-20T09:10:30.792Z,30.29
2019-04-20T09:12:54.669Z,30.78
2019-04-20T09:15:21.131Z,30.72
2019-04-20T09:18:09.290Z,30.18
2019-04-20T09:20:48.700Z,30.61
2019-04-20T09:23:30.018Z,31.08
2019-04-20T09:26:10.458Z,31.04
2019-04-20T09:28:54.470Z,31.01
2019-04-20T09:31:35.462Z,30.82
2019-04-20T09:34:34.038Z,31.33
2019-04-20T09:37:26.056Z,30.97
2019-04-20T09:40:21.859Z,31.41
2019-04-20T09:42:51.610Z,31.49
2019-04-20T09:45:37.073Z,31.32
2019-04-20T09:48:12.550Z,31.08
2019-04-20T09:50:59.484Z,30.50
2019-04-20T09:53:32.579Z,29.90
2019-04-20T09:56:08.776Z,29.52
2019-04-20T09:58:45.378Z,30.35
2019-04-20T10:01:13.567Z,30.39
2019-04-20T10:03:36.639Z,30.84
2019-04-20T10:06:10.003Z,30.88
2019-04-20T10:08:49.216Z,30.23
2019-04-20T10:11:19.185Z,30.85
2019-04-20T10:13:54.270Z,30.88
2019-04-20T10:16:27.595Z,31.32
2019-04-20T10:19:00.868Z,31.82
2019-04-20T10:21:35.980Z,32.25
2019-04-20T10:24:10.644Z,31.94
2019-04-20T10:26:44.943Z,32.04
2019-04-20T10:29:19.621Z,32.36
2019-04-20T10:31:58.631Z,32.31
2019-04-20T10:34:30.587Z,32.34
2019-04-20T10:37:23.873Z,32.32
2019-04-20T10:39:58.527Z,32.53
2019-04-20T10:42:32.276Z,32.42
2019-04-20T10:45:07.038Z,32.37
2019-04-20T10:47:41.082Z,31.46
2019-04-20T10:50:15.017Z,31.62
2019-04-20T10:52:49.892Z,32.10
2019-04-20T10:55:25.053Z,32.25
2019-04-20T10:57:59.733Z,31.79
2019-04-20T11:00:50.092Z,31.12
2019-04-20T11:03:24.743Z,30.75
2019-04-20T11:05:58.539Z,31.11
2019-04-20T11:08:32.904Z,30.75
2019-04-20T11:11:13.001Z,30.90
2019-04-20T11:13:41.470Z,31.56
2019-04-20T11:16:14.824Z,32.31
2019-04-20T11:18:49.395Z,31.56
2019-04-20T11:21:24.624Z,31.37
2019-04-20T11:24:00.322Z,31.07
2019-04-20T11:26:37.980Z,31.19
2019-04-20T11:29:10.549Z,31.38
2019-04-20T11:31:49.467Z,32.45
2019-04-20T11:34:25.792Z,32.83
2019-04-20T11:36:57.256Z,33.18
2019-04-20T11:39:30.874Z,31.98
2019-04-20T11:42:05.655Z,32.07
2019-04-20T11:44:39.187Z,31.45
2019-04-20T11:47:14.733Z,30.87
2019-04-20T11:49:49.376Z,30.14
2019-04-20T11:52:24.953Z,30.41
2019-04-20T11:54:58.577Z,29.79
2019-04-20T11:57:33.430Z,29.40
2019-04-20T12:00:08.740Z,29.91
2019-04-20T12:03:09.814Z,29.58
2019-04-20T12:05:43.015Z,30.26
2019-04-20T12:08:13.176Z,29.30
2019-04-20T12:10:50.303Z,29.64
2019-04-20T12:13:24.682Z,29.77
2019-04-20T12:15:59.463Z,29.40
2019-04-20T12:18:33.725Z,30.00
2019-04-20T12:21:08.562Z,30.42
2019-04-20T12:23:42.385Z,30.74
2019-04-20T12:26:16.560Z,31.42
2019-04-20T12:28:50.125Z,31.23
2019-04-20T12:31:27.164Z,31.43
2019-04-20T12:33:58.641Z,30.45
2019-04-20T12:36:37.247Z,29.74
2019-04-20T12:39:11.113Z,29.52
2019-04-20T12:41:52.876Z,29.70
2019-04-20T12:44:19.990Z,30.32
2019-04-20T12:46:54.249Z,29.26
2019-04-20T12:49:29.490Z,28.71
2019-04-20T12:52:06.425Z,29.14
2019-04-20T12:54:41.147Z,30.12
2019-04-20T12:57:16.564Z,31.15
2019-04-20T12:59:52.330Z,31.30
2019-04-20T13:02:29.293Z,31.43
2019-04-20T13:05:03.692Z,31.57
2019-04-20T13:07:42.054Z,31.92
2019-04-20T13:10:13.685Z,31.64
2019-04-20T13:13:00.836Z,31.11
2019-04-20T13:15:54.340Z,30.31
2019-04-20T13:18:47.611Z,29.59
2019-04-20T13:21:22.977Z,29.28
2019-04-20T13:23:56.554Z,30.15
2019-04-20T13:26:30.973Z,30.32
2019-04-20T13:29:06.463Z,30.07
2019-04-20T13:31:41.761Z,29.88
2019-04-20T13:34:17.320Z,30.17
2019-04-20T13:36:52.465Z,30.39
2019-04-20T13:39:26.847Z,30.34
2019-04-20T13:42:10.302Z,30.22
2019-04-20T13:44:36.933Z,30.54
2019-04-20T13:47:10.439Z,30.71
2019-04-20T13:49:45.183Z,30.87
2019-04-20T13:52:22.586Z,30.91
2019-04-20T13:54:58.028Z,29.79
2019-04-20T13:57:40.215Z,29.83
2019-04-20T14:00:38.709Z,29.50
2019-04-20T14:03:16.596Z,29.01
2019-04-20T14:05:50.823Z,28.19
2019-04-20T14:08:35.662Z,28.90
2019-04-20T14:11:11.465Z,29.43
2019-04-20T14:13:53.620Z,29.47
2019-04-20T14:16:23.188Z,29.87
2019-04-20T14:18:58.783Z,30.01
2019-04-20T14:21:32.212Z,29.95
2019-04-20T14:24:06.686Z,30.18
2019-04-20T14:26:43.741Z,29.97
2019-04-20T14:29:17.395Z,30.03
2019-04-20T14:31:52.133Z,30.27
2019-04-20T14:34:29.016Z,30.39
2019-04-20T14:37:02.668Z,30.10
2019-04-20T14:39:38.828Z,29.96
2019-04-20T14:42:23.305Z,29.57
2019-04-20T14:44:50.097Z,29.28
2019-04-20T14:47:27.876Z,29.07
2019-04-20T14:50:03.095Z,28.64
2019-04-20T14:52:37.703Z,28.70
2019-04-20T14:55:15.512Z,28.55
2019-04-20T14:57:49.553Z,28.26
2019-04-20T15:00:56.536Z,27.80
2019-04-20T15:03:38.313Z,27.30
2019-04-20T15:06:13.601Z,27.03
2019-04-20T15:08:50.441Z,26.74
2019-04-20T15:11:24.973Z,26.10
2019-04-20T15:14:02.961Z,25.91
2019-04-20T15:16:38.353Z,25.93
2019-04-20T15:19:36.031Z,25.75
2019-04-20T15:22:33.770Z,25.70
2019-04-20T15:25:09.469Z,25.75
2019-04-20T15:27:46.317Z,25.60
2019-04-20T15:30:20.519Z,25.57
2019-04-20T15:32:56.840Z,25.51
2019-04-20T15:35:40.104Z,25.24
2019-04-20T15:38:17.494Z,25.33
2019-04-20T15:40:53.286Z,25.21
2019-04-20T15:43:31.077Z,25.33
2019-04-20T15:46:07.577Z,25.32
2019-04-20T15:48:42.125Z,25.62
2019-04-20T15:51:17.153Z,25.62
2019-04-20T15:53:55.629Z,25.79
2019-04-20T15:56:30.569Z,25.97
2019-04-20T15:59:04.454Z,26.05
2019-04-20T16:02:03.110Z,25.92
2019-04-20T16:04:56.495Z,25.30
2019-04-20T16:07:40.694Z,24.91
2019-04-20T16:10:13.005Z,24.56
2019-04-20T16:12:52.706Z,24.49
2019-04-20T16:15:25.348Z,24.27
2019-04-20T16:18:00.817Z,24.02
2019-04-20T16:20:47.293Z,24.03
2019-04-20T16:23:14.409Z,24.00
2019-04-20T16:26:08.676Z,23.75
2019-04-20T16:28:51.759Z,23.85
2019-04-20T16:31:29.167Z,23.83
2019-04-20T16:34:07.743Z,23.69
2019-04-20T16:36:42.626Z,23.39
2019-04-20T16:39:16.522Z,23.30
2019-04-20T16:41:51.166Z,23.05
2019-04-20T16:44:35.481Z,23.06
2019-04-20T16:47:12.512Z,22.88
2019-04-20T16:49:50.864Z,22.85
2019-04-20T16:52:38.885Z,22.87
2019-04-20T16:55:14.633Z,22.77
2019-04-20T16:57:53.661Z,22.72
2019-04-20T17:00:31.597Z,22.53
2019-04-20T17:03:13.174Z,22.37
2019-04-20T17:05:51.301Z,22.13
2019-04-20T17:08:27.012Z,21.95
2019-04-20T17:11:03.479Z,21.81
2019-04-20T17:13:53.751Z,21.59
2019-04-20T17:16:37.674Z,21.46
2019-04-20T17:19:15.594Z,21.28
2019-04-20T17:22:03.553Z,21.18
2019-04-20T17:24:39.996Z,20.94
2019-04-20T17:27:51.440Z,20.92
2019-04-20T17:30:49.045Z,20.82
2019-04-20T17:33:55.121Z,20.73
2019-04-20T17:36:44.312Z,20.61
2019-04-20T17:39:45.518Z,20.47
2019-04-20T17:42:46.201Z,20.37
2019-04-20T17:45:28.615Z,20.28
2019-04-20T17:48:09.726Z,20.12
2019-04-20T17:50:54.594Z,20.03
2019-04-20T17:53:32.264Z,19.94
2019-04-20T17:55:54.897Z,19.87
2019-04-20T17:58:35.938Z,19.71
2019-04-20T18:01:41.302Z,19.65
2019-04-20T18:04:57.444Z,19.63
2019-04-20T18:07:04.327Z,19.48
2019-04-20T18:09:56.484Z,19.40
2019-04-20T18:12:31.098Z,19.32
2019-04-20T18:15:17.016Z,19.20
2019-04-20T18:18:15.716Z,19.05
2019-04-20T18:20:54.929Z,18.96
2019-04-20T18:23:44.756Z,18.87
2019-04-20T18:26:48.163Z,18.74
2019-04-20T18:29:32.559Z,18.66
2019-04-20T18:32:07.695Z,18.56
2019-04-20T18:35:20.643Z,18.47
2019-04-20T18:38:09.758Z,18.25
2019-04-20T18:41:02.676Z,17.91
2019-04-20T18:44:20.197Z,17.69
2019-04-20T18:47:23.724Z,17.61
2019-04-20T18:49:58.537Z,17.58
2019-04-20T18:52:39.939Z,17.49
2019-04-20T18:55:33.244Z,17.29
2019-04-20T18:58:13.585Z,17.19
2019-04-20T19:01:15.003Z,17.11
2019-04-20T19:04:07.799Z,17.16
2019-04-20T19:07:06.220Z,17.05
2019-04-20T19:09:53.289Z,17.00
2019-04-20T19:12:50.313Z,16.92
2019-04-20T19:16:15.219Z,16.91
2019-04-20T19:19:30.245Z,16.93
2019-04-20T19:22:06.348Z,16.98
2019-04-20T19:24:51.770Z,17.02
2019-04-20T19:27:35.872Z,17.00
2019-04-20T19:30:21.426Z,17.09
2019-04-20T19:33:18.986Z,17.09
2019-04-20T19:35:50.121Z,17.07
2019-04-20T19:38:22.638Z,17.00
2019-04-20T19:41:18.990Z,16.91
2019-04-20T19:44:19.219Z,16.92
2019-04-20T19:47:28.448Z,16.88
2019-04-20T19:50:36.735Z,16.81
2019-04-20T19:53:11.221Z,16.78
2019-04-20T19:55:47.912Z,16.71
2019-04-20T19:58:52.953Z,16.68
2019-04-20T20:01:29.401Z,16.66
2019-04-20T20:04:19.698Z,16.56
2019-04-20T20:07:28.689Z,16.34
2019-04-20T20:10:10.594Z,16.17
2019-04-20T20:13:02.591Z,15.97
2019-04-20T20:16:00.835Z,15.92
2019-04-20T20:18:53.285Z,15.88
2019-04-20T20:21:51.484Z,15.88
2019-04-20T20:24:27.191Z,15.87
2019-04-20T20:27:22.879Z,15.84
2019-04-20T20:30:20.474Z,15.80
2019-04-20T20:33:11.610Z,15.77
2019-04-20T20:35:48.091Z,15.73
2019-04-20T20:38:34.014Z,15.70
2019-04-20T20:41:10.340Z,15.61
2019-04-20T20:44:03.114Z,15.53
2019-04-20T20:46:34.828Z,15.40
2019-04-20T20:49:21.617Z,15.01
2019-04-20T20:52:05.903Z,14.89
2019-04-20T20:54:44.877Z,14.79
2019-04-20T20:57:21.910Z,14.77
2019-04-20T20:59:57.461Z,14.74
2019-04-20T21:02:39.000Z,14.71
2019-04-20T21:05:05.874Z,14.72
2019-04-20T21:07:42.649Z,14.70
2019-04-20T21:10:25.884Z,14.70
2019-04-20T21:13:01.363Z,14.67
2019-04-20T21:15:33.429Z,14.59
2019-04-20T21:18:34.892Z,14.59
2019-04-20T21:21:01.066Z,14.54
2019-04-20T21:23:35.306Z,14.46
2019-04-20T21:26:17.912Z,14.36
2019-04-20T21:28:46.058Z,14.32
2019-04-20T21:31:24.228Z,14.29
2019-04-20T21:33:55.221Z,14.27
2019-04-20T21:36:31.341Z,14.30
2019-04-20T21:39:09.691Z,14.28
2019-04-20T21:41:49.668Z,14.23
2019-04-20T21:44:21.525Z,14.13
2019-04-20T21:46:54.602Z,14.10
2019-04-20T21:49:42.245Z,14.07
2019-04-20T21:52:18.376Z,14.02
2019-04-20T21:54:45.716Z,13.88
2019-04-20T21:57:20.010Z,13.86
2019-04-20T22:00:08.491Z,13.79
2019-04-20T22:02:44.678Z,13.76
2019-04-20T22:05:13.577Z,13.68
2019-04-20T22:07:50.348Z,13.59
2019-04-20T22:10:29.523Z,13.51
2019-04-20T22:13:02.707Z,13.42
2019-04-20T22:15:45.973Z,13.42
2019-04-20T22:18:16.501Z,13.39
2019-04-20T22:21:04.536Z,13.31
2019-04-20T22:23:43.689Z,13.22
2019-04-20T22:26:20.261Z,13.10
2019-04-20T22:28:44.627Z,12.97
2019-04-20T22:31:20.245Z,12.86
2019-04-20T22:33:56.256Z,12.79
2019-04-20T22:36:34.365Z,12.75
2019-04-20T22:39:18.724Z,12.69
2019-04-20T22:42:02.013Z,12.59
2019-04-20T22:44:34.215Z,12.51
2019-04-20T22:47:14.992Z,12.38
2019-04-20T22:50:00.062Z,12.26
2019-04-20T22:52:36.225Z,12.11
2019-04-20T22:55:19.855Z,12.05
2019-04-20T22:57:46.893Z,11.98
2019-04-20T23:00:14.538Z,11.89
2019-04-20T23:02:46.942Z,11.79
2019-04-20T23:05:22.779Z,11.74
2019-04-20T23:07:57.058Z,11.64
2019-04-20T23:10:39.107Z,11.59
2019-04-20T23:13:11.625Z,11.54
2019-04-20T23:15:53.082Z,11.59
2019-04-20T23:18:24.552Z,11.58
2019-04-20T23:21:03.715Z,11.53
2019-04-20T23:23:37.401Z,11.49
2019-04-20T23:26:12.560Z,11.39
2019-04-20T23:28:53.602Z,11.34
2019-04-20T23:31:26.785Z,11.24
2019-04-20T23:34:09.160Z,11.19
2019-04-20T23:36:40.639Z,11.16
2019-04-20T23:39:13.057Z,11.17
2019-04-20T23:41:52.517Z,11.13
2019-04-20T23:44:35.750Z,11.06
2019-04-20T23:47:25.497Z,10.93
2019-04-20T23:50:20.832Z,10.77
2019-04-20T23:52:59.690Z,10.66
2019-04-20T23:55:16.989Z,10.61
2019-04-20T23:57:54.713Z,10.58
